createdAt,value
2019-05-18T00:01:33.444Z,3.12
2019-05-18T00:04:01.857Z,3.87
2019-05-18T00:06:30.300Z,3.92
2019-05-18T00:08:58.690Z,4.03
2019-05-18T00:11:27.409Z,3.12
2019-05-18T00:13:56.089Z,4.53
2019-05-18T00:16:24.475Z,3.98
2019-05-18T00:18:52.889Z,4.03
2019-05-18T00:21:24.580Z,3.90
2019-05-18T00:23:52.968Z,3.83
2019-05-18T00:26:21.349Z,3.47
2019-05-18T00:28:49.747Z,3.35
2019-05-18T00:31:18.129Z,3.90
2019-05-18T00:33:46.525Z,3.40
2019-05-18T00:36:14.920Z,5.33
2019-05-18T00:38:43.308Z,3.87
2019-05-18T00:41:11.700Z,4.25
2019-05-18T00:43:40.101Z,4.85
2019-05-18T00:46:08.482Z,5.87
2019-05-18T00:48:36.881Z,3.80
2019-05-18T00:51:05.252Z,3.98
2019-05-18T00:53:33.658Z,3.92
2019-05-18T00:56:02.094Z,4.65
2019-05-18T00:58:30.473Z,4.10
2019-05-18T01:00:58.860Z,4.65
2019-05-18T01:03:27.318Z,4.55
2019-05-18T01:05:55.705Z,6.20
2019-05-18T01:08:24.366Z,4.37
2019-05-18T01:10:52.770Z,3.45
2019-05-18T01:13:21.138Z,4.55
2019-05-18T01:15:49.526Z,6.90
2019-05-18T01:18:17.912Z,4.72
2019-05-18T01:20:46.465Z,4.08
2019-05-18T01:23:14.885Z,5.17
2019-05-18T01:25:43.258Z,4.65
2019-05-18T01:28:11.632Z,3.85
2019-05-18T01:30:40.020Z,3.92
2019-05-18T01:33:08.402Z,3.85
2019-05-18T01:35:37.042Z,3.87
2019-05-18T01:38:05.492Z,4.30
2019-05-18T01:40:33.923Z,4.03
2019-05-18T01:43:02.314Z,3.67
2019-05-18T01:45:30.701Z,4.35
2019-05-18T01:48:12.768Z,4.90
2019-05-18T01:50:29.470Z,4.97
2019-05-18T01:52:57.860Z,3.08
2019-05-18T01:55:26.252Z,3.95
2019-05-18T01:57:54.658Z,5.08
2019-05-18T02:00:23.099Z,7.70
2019-05-18T02:02:51.785Z,5.90
2019-05-18T02:05:20.189Z,4.97
2019-05-18T02:07:48.568Z,4.58
2019-05-18T02:10:17.465Z,3.80
2019-05-18T02:12:46.120Z,4.40
2019-05-18T02:15:14.782Z,4.90
2019-05-18T02:17:43.168Z,7.08
2019-05-18T02:20:11.695Z,5.22
2019-05-18T02:22:40.079Z,6.37
2019-05-18T02:25:09.107Z,5.25
2019-05-18T02:27:37.492Z,5.42
2019-05-18T02:30:07.650Z,5.70
2019-05-18T02:32:36.164Z,6.50
2019-05-18T02:35:05.886Z,5.25
2019-05-18T02:37:34.533Z,4.20
2019-05-18T02:40:03.656Z,6.12
2019-05-18T02:42:32.057Z,5.65
2019-05-18T02:45:00.536Z,6.70
2019-05-18T02:47:28.925Z,6.17
2019-05-18T02:49:57.320Z,5.78
2019-05-18T02:52:25.713Z,7.67
2019-05-18T02:54:54.191Z,7.72
2019-05-18T02:57:22.565Z,6.37
2019-05-18T02:59:50.948Z,8.15
2019-05-18T03:02:19.359Z,7.17
2019-05-18T03:04:47.750Z,5.03
2019-05-18T03:07:16.175Z,6.78
2019-05-18T03:09:44.625Z,7.83
2019-05-18T03:12:13.289Z,6.35
2019-05-18T03:14:41.668Z,6.47
2019-05-18T03:17:10.110Z,5.50
2019-05-18T03:19:38.489Z,7.55
2019-05-18T03:22:06.886Z,5.58
2019-05-18T03:24:35.275Z,7.60
2019-05-18T03:27:03.660Z,6.83
2019-05-18T03:29:32.065Z,6.05
2019-05-18T03:32:00.450Z,6.33
2019-05-18T03:34:28.833Z,7.20
2019-05-18T03:36:57.251Z,8.78
2019-05-18T03:39:25.626Z,7.42
2019-05-18T03:41:54.032Z,6.45
2019-05-18T03:44:22.413Z,5.92
2019-05-18T03:46:51.124Z,7.37
2019-05-18T03:49:26.770Z,14.13
2019-05-18T03:51:49.626Z,9.23
2019-05-18T03:54:18.017Z,7.55
2019-05-18T03:56:46.415Z,5.62
2019-05-18T03:59:15.077Z,6.15
2019-05-18T04:01:43.485Z,7.90
2019-05-18T04:04:11.881Z,8.18
2019-05-18T04:06:40.273Z,6.85
2019-05-18T04:09:08.728Z,5.37
2019-05-18T04:11:37.117Z,7.17
2019-05-18T04:14:08.319Z,9.33
2019-05-18T04:16:35.618Z,8.55
2019-05-18T04:19:04.085Z,7.53
2019-05-18T04:21:32.470Z,8.40
2019-05-18T04:24:00.864Z,7.00
2019-05-18T04:26:29.931Z,10.80
2019-05-18T04:28:58.356Z,6.62
2019-05-18T04:31:26.744Z,6.47
2019-05-18T04:33:55.145Z,7.97
2019-05-18T04:36:23.520Z,10.45
2019-05-18T04:38:51.912Z,8.08
2019-05-18T04:41:20.306Z,10.30
2019-05-18T04:43:48.697Z,7.72
2019-05-18T04:46:17.316Z,8.03
2019-05-18T04:48:45.809Z,7.87
2019-05-18T04:51:14.181Z,8.40
2019-05-18T04:53:42.824Z,6.87
2019-05-18T04:56:11.204Z,9.13
2019-05-18T04:58:39.885Z,5.50
2019-05-18T05:01:08.270Z,5.78
2019-05-18T05:03:36.659Z,6.00
2019-05-18T05:06:05.339Z,10.15
2019-05-18T05:08:33.723Z,8.00
2019-05-18T05:11:02.104Z,7.45
2019-05-18T05:13:30.494Z,5.72
2019-05-18T05:15:58.876Z,10.45
2019-05-18T05:18:27.273Z,9.00
2019-05-18T05:20:55.654Z,8.85
2019-05-18T05:23:24.299Z,6.47
2019-05-18T05:25:52.680Z,7.78
2019-05-18T05:28:21.089Z,11.28
2019-05-18T05:30:49.476Z,7.25
2019-05-18T05:33:17.880Z,13.05
2019-05-18T05:35:46.277Z,10.15
2019-05-18T05:38:14.661Z,10.90
2019-05-18T05:40:43.055Z,9.33
2019-05-18T05:43:11.440Z,20.05
2019-05-18T05:45:39.839Z,9.35
2019-05-18T05:48:08.225Z,8.43
2019-05-18T05:50:36.877Z,10.98
2019-05-18T05:53:05.450Z,11.55
2019-05-18T05:55:33.843Z,8.90
2019-05-18T05:58:02.221Z,13.32
2019-05-18T06:00:30.611Z,7.42
2019-05-18T06:02:58.992Z,7.08
2019-05-18T06:05:27.397Z,10.58
2019-05-18T06:07:55.774Z,7.47
2019-05-18T06:10:24.169Z,10.28
2019-05-18T06:12:52.548Z,7.42
2019-05-18T06:15:20.964Z,7.17
2019-05-18T06:17:49.355Z,7.00
2019-05-18T06:20:17.759Z,11.75
2019-05-18T06:22:46.311Z,9.75
2019-05-18T06:25:15.148Z,12.23
2019-05-18T06:27:43.520Z,10.23
2019-05-18T06:30:13.165Z,14.80
2019-05-18T06:32:41.554Z,9.87
2019-05-18T06:35:10.060Z,11.05
2019-05-18T06:37:38.435Z,13.70
2019-05-18T06:40:08.076Z,9.30
2019-05-18T06:42:37.180Z,12.77
2019-05-18T06:45:09.354Z,9.83
2019-05-18T06:47:37.737Z,11.38
2019-05-18T06:50:12.434Z,13.15
2019-05-18T06:52:39.812Z,8.23
2019-05-18T06:55:08.281Z,11.00
2019-05-18T06:57:37.212Z,9.80
2019-05-18T07:00:10.540Z,14.70
2019-05-18T07:02:38.925Z,11.45
2019-05-18T07:05:07.508Z,20.12
2019-05-18T07:07:35.913Z,11.22
2019-05-18T07:10:06.682Z,12.23
2019-05-18T07:12:35.075Z,11.48
2019-05-18T07:15:05.037Z,10.53
2019-05-18T07:17:34.698Z,10.45
2019-05-18T07:20:05.842Z,14.10
2019-05-18T07:22:34.368Z,10.78
2019-05-18T07:25:02.830Z,12.43
2019-05-18T07:27:31.276Z,10.45
2019-05-18T07:29:59.668Z,10.38
2019-05-18T07:32:28.071Z,10.48
2019-05-18T07:34:56.528Z,10.88
2019-05-18T07:37:24.963Z,12.43
2019-05-18T07:39:53.399Z,10.10
2019-05-18T07:42:21.805Z,12.20
2019-05-18T07:44:50.192Z,9.73
2019-05-18T07:47:18.596Z,10.95
2019-05-18T07:49:47.046Z,10.60
2019-05-18T07:52:17.253Z,10.68
2019-05-18T07:54:45.608Z,10.48
2019-05-18T07:57:14.015Z,12.03
2019-05-18T07:59:42.402Z,12.23
2019-05-18T08:02:10.826Z,11.22
2019-05-18T08:04:39.870Z,11.95
2019-05-18T08:07:08.302Z,12.98
2019-05-18T08:09:36.683Z,13.18
2019-05-18T08:12:05.099Z,15.05
2019-05-18T08:14:34.285Z,12.93
2019-05-18T08:17:02.672Z,12.05
2019-05-18T08:19:31.056Z,10.80
2019-05-18T08:21:59.498Z,9.65
2019-05-18T08:24:27.883Z,14.70
2019-05-18T08:26:56.280Z,10.78
2019-05-18T08:29:24.676Z,14.35
2019-05-18T08:31:53.456Z,13.83
2019-05-18T08:34:21.982Z,10.85
2019-05-18T08:36:50.364Z,11.55
2019-05-18T08:39:21.812Z,10.70
2019-05-18T08:41:56.360Z,9.13
2019-05-18T08:44:27.945Z,10.53
2019-05-18T08:46:59.257Z,7.45
2019-05-18T08:49:37.403Z,9.48
2019-05-18T08:52:08.629Z,7.75
2019-05-18T08:54:37.121Z,7.97
2019-05-18T08:57:05.508Z,6.47
2019-05-18T08:59:33.905Z,7.42
2019-05-18T09:02:02.611Z,7.70
2019-05-18T09:04:31.072Z,7.83
2019-05-18T09:07:00.272Z,9.40
2019-05-18T09:09:28.699Z,9.58
2019-05-18T09:11:57.443Z,8.75
2019-05-18T09:14:25.860Z,5.90
2019-05-18T09:16:54.240Z,7.05
2019-05-18T09:22:03.963Z,8.35
2019-05-18T09:24:32.374Z,8.28
2019-05-18T09:27:00.748Z,7.28
2019-05-18T09:29:29.144Z,7.25
2019-05-18T09:31:57.528Z,8.75
2019-05-18T09:34:26.001Z,7.60
2019-05-18T09:36:54.370Z,7.70
2019-05-18T09:39:22.775Z,6.05
2019-05-18T09:41:51.202Z,7.90
2019-05-18T09:44:19.633Z,5.58
2019-05-18T09:46:48.079Z,9.33
2019-05-18T09:49:17.381Z,6.40
2019-05-18T09:51:46.069Z,9.53
2019-05-18T09:54:14.468Z,8.83
2019-05-18T09:56:42.856Z,11.12
2019-05-18T09:59:11.253Z,7.12
2019-05-18T10:01:45.656Z,8.25
2019-05-18T10:04:14.519Z,10.32
2019-05-18T10:06:42.929Z,5.40
2019-05-18T10:09:11.315Z,8.15
2019-05-18T10:11:39.686Z,7.53
2019-05-18T10:14:08.073Z,7.50
2019-05-18T10:16:36.469Z,6.47
2019-05-18T10:19:04.860Z,6.60
2019-05-18T10:21:33.601Z,5.65
2019-05-18T10:24:01.990Z,5.22
2019-05-18T10:26:30.462Z,7.03
2019-05-18T10:28:59.004Z,8.35
2019-05-18T10:31:27.423Z,6.35
2019-05-18T10:33:55.804Z,4.80
2019-05-18T10:36:24.207Z,8.23
2019-05-18T10:38:52.592Z,8.18
2019-05-18T10:41:20.994Z,7.75
2019-05-18T10:43:51.572Z,8.28
2019-05-18T10:46:19.994Z,6.08
2019-05-18T10:48:48.748Z,6.58
2019-05-18T10:51:17.144Z,7.28
2019-05-18T10:53:45.529Z,7.97
2019-05-18T10:56:13.923Z,8.33
2019-05-18T10:58:44.452Z,5.70
2019-05-18T11:01:12.839Z,7.17
2019-05-18T11:03:41.226Z,7.80
2019-05-18T11:06:09.987Z,9.80
2019-05-18T11:08:38.581Z,6.50
2019-05-18T11:11:08.604Z,8.48
2019-05-18T11:13:37.380Z,6.78
2019-05-18T11:16:05.791Z,6.45
2019-05-18T11:18:34.173Z,5.42
2019-05-18T11:21:02.801Z,7.75
2019-05-18T11:23:42.875Z,9.25
2019-05-18T11:28:29.141Z,7.15
2019-05-18T11:31:00.613Z,6.62
2019-05-18T11:33:29.003Z,9.63
2019-05-18T11:35:57.400Z,9.05
2019-05-18T11:38:26.080Z,6.03
2019-05-18T11:40:54.473Z,9.88
2019-05-18T11:43:22.852Z,8.30
2019-05-18T11:45:51.236Z,9.75
2019-05-18T11:48:19.869Z,11.78
2019-05-18T11:50:48.257Z,6.50
2019-05-18T11:53:16.656Z,8.63
2019-05-18T11:55:45.051Z,8.20
2019-05-18T11:58:13.468Z,7.30
2019-05-18T12:00:42.623Z,8.38
2019-05-18T12:03:11.133Z,9.78
2019-05-18T12:05:41.893Z,8.53
2019-05-18T12:08:10.366Z,8.45
2019-05-18T12:10:38.755Z,11.03
2019-05-18T12:13:07.220Z,11.70
2019-05-18T12:15:35.989Z,8.03
2019-05-18T12:18:04.815Z,7.50
2019-05-18T12:20:38.390Z,7.90
2019-05-18T12:23:08.354Z,9.53
2019-05-18T12:25:36.912Z,8.23
2019-05-18T12:28:05.345Z,7.75
2019-05-18T12:30:33.772Z,9.43
2019-05-18T12:33:02.176Z,10.48
2019-05-18T12:35:30.808Z,6.75
2019-05-18T12:37:59.309Z,7.53
2019-05-18T12:40:27.756Z,8.48
2019-05-18T12:42:56.232Z,7.50
2019-05-18T12:45:25.339Z,5.80
2019-05-18T12:47:53.745Z,9.93
2019-05-18T12:50:22.763Z,6.87
2019-05-18T12:52:51.196Z,6.62
2019-05-18T12:55:19.826Z,7.33
2019-05-18T12:57:48.212Z,6.05
2019-05-18T13:00:17.742Z,7.47
2019-05-18T13:02:48.093Z,7.80
2019-05-18T13:05:16.926Z,6.05
2019-05-18T13:07:45.360Z,5.60
2019-05-18T13:10:15.659Z,6.78
2019-05-18T13:12:44.039Z,4.75
2019-05-18T13:15:12.801Z,5.05
2019-05-18T13:17:41.189Z,5.28
2019-05-18T13:20:11.135Z,5.00
2019-05-18T13:22:39.542Z,5.42
2019-05-18T13:25:08.771Z,7.47
2019-05-18T13:27:39.719Z,5.20
2019-05-18T13:32:36.526Z,3.83
2019-05-18T13:35:06.672Z,3.55
2019-05-18T13:40:02.684Z,5.30
2019-05-18T13:42:31.071Z,4.70
2019-05-18T13:44:59.480Z,4.92
2019-05-18T13:47:27.864Z,3.90
2019-05-18T13:49:58.367Z,3.30
2019-05-18T13:52:26.655Z,4.85
2019-05-18T13:55:03.711Z,3.17
2019-05-18T13:59:52.852Z,3.15
2019-05-18T14:02:21.236Z,3.60
2019-05-18T14:04:49.616Z,6.00
2019-05-18T14:07:18.008Z,2.37
2019-05-18T14:09:46.456Z,5.17
2019-05-18T14:12:14.851Z,2.62
2019-05-18T14:14:43.523Z,2.00
2019-05-18T14:17:11.918Z,2.75
2019-05-18T14:19:40.314Z,1.95
2019-05-18T14:22:08.702Z,4.28
2019-05-18T14:24:37.351Z,2.17
2019-05-18T14:27:05.736Z,2.50
2019-05-18T14:29:34.139Z,2.50
2019-05-18T14:32:02.532Z,2.00
2019-05-18T14:34:30.936Z,2.65
2019-05-18T14:36:59.323Z,2.00
2019-05-18T14:39:27.706Z,2.02
2019-05-18T14:41:56.113Z,2.55
2019-05-18T14:44:24.480Z,2.52
2019-05-18T14:46:52.976Z,2.33
2019-05-18T14:49:21.336Z,3.52
2019-05-18T14:51:49.765Z,3.15
2019-05-18T14:54:18.628Z,1.70
2019-05-18T14:56:47.036Z,2.02
2019-05-18T14:59:15.451Z,3.35
2019-05-18T15:01:43.847Z,2.22
2019-05-18T15:04:13.961Z,1.72
2019-05-18T15:06:42.362Z,2.35
2019-05-18T15:09:11.060Z,2.70
2019-05-18T15:11:39.475Z,1.90
2019-05-18T15:14:08.436Z,2.72
2019-05-18T15:16:36.923Z,1.62
2019-05-18T15:19:05.296Z,1.92
2019-05-18T15:21:33.713Z,2.47
2019-05-18T15:24:02.378Z,4.20
2019-05-18T15:26:31.156Z,2.33
2019-05-18T15:28:59.559Z,4.20
2019-05-18T15:31:27.958Z,3.08
2019-05-18T15:33:56.362Z,0.65
2019-05-18T15:36:24.732Z,2.12
2019-05-18T15:38:53.123Z,2.17
2019-05-18T15:41:21.848Z,0.85
2019-05-18T15:43:50.244Z,1.70
2019-05-18T15:46:18.918Z,0.70
2019-05-18T15:48:47.814Z,1.32
2019-05-18T15:51:16.495Z,4.60
2019-05-18T15:53:44.933Z,1.27
2019-05-18T15:56:13.324Z,1.15
2019-05-18T15:58:41.721Z,1.15
2019-05-18T16:01:10.133Z,4.40
2019-05-18T16:03:38.507Z,2.35
2019-05-18T16:06:06.893Z,1.77
2019-05-18T16:08:35.290Z,1.95
2019-05-18T16:11:03.676Z,1.15
2019-05-18T16:13:32.083Z,2.37
2019-05-18T16:16:00.525Z,2.08
2019-05-18T16:18:28.915Z,1.87
2019-05-18T16:20:57.304Z,4.37
2019-05-18T16:23:25.697Z,2.33
2019-05-18T16:25:54.071Z,1.52
2019-05-18T16:28:22.466Z,3.40
2019-05-18T16:30:50.882Z,1.10
2019-05-18T16:33:19.276Z,1.50
2019-05-18T16:35:47.655Z,1.17
2019-05-18T16:38:16.045Z,1.22
2019-05-18T16:40:44.440Z,4.08
2019-05-18T16:43:12.843Z,2.08
2019-05-18T16:45:41.272Z,2.35
2019-05-18T16:48:09.704Z,2.58
2019-05-18T16:50:38.101Z,1.92
2019-05-18T16:53:06.565Z,1.05
2019-05-18T16:55:34.978Z,2.33
2019-05-18T16:58:03.722Z,1.60
2019-05-18T17:00:32.149Z,1.50
2019-05-18T17:03:00.548Z,2.35
2019-05-18T17:05:29.008Z,2.02
2019-05-18T17:07:57.412Z,2.30
2019-05-18T17:10:25.791Z,2.33
2019-05-18T17:12:54.182Z,1.82
2019-05-18T17:15:22.640Z,4.65
2019-05-18T17:17:51.076Z,2.35
2019-05-18T17:20:20.037Z,1.70
2019-05-18T17:22:48.451Z,1.52
2019-05-18T17:25:17.304Z,1.20
2019-05-18T17:27:45.681Z,2.80
2019-05-18T17:30:14.623Z,2.22
2019-05-18T17:32:43.004Z,1.85
2019-05-18T17:35:11.852Z,0.98
2019-05-18T17:37:40.236Z,1.85
2019-05-18T17:40:09.071Z,2.95
2019-05-18T17:42:37.457Z,4.78
2019-05-18T17:45:10.313Z,2.00
2019-05-18T17:47:38.724Z,1.30
2019-05-18T17:50:08.259Z,2.45
2019-05-18T17:52:36.635Z,2.47
2019-05-18T17:55:06.576Z,2.60
2019-05-18T17:57:34.964Z,4.22
2019-05-18T18:00:08.043Z,2.80
2019-05-18T18:02:36.500Z,5.22
2019-05-18T18:05:08.089Z,5.33
2019-05-18T18:07:36.491Z,6.30
2019-05-18T18:10:06.515Z,3.45
2019-05-18T18:12:34.923Z,3.33
2019-05-18T18:15:03.639Z,5.00
2019-05-18T18:17:32.013Z,4.03
2019-05-18T18:20:00.403Z,4.25
2019-05-18T18:22:28.793Z,3.00
2019-05-18T18:24:57.200Z,2.87
2019-05-18T18:27:29.526Z,2.85
2019-05-18T18:29:55.966Z,4.17
2019-05-18T18:32:24.762Z,3.47
2019-05-18T18:34:53.161Z,5.55
2019-05-18T18:37:21.622Z,4.45
2019-05-18T18:39:50.023Z,4.75
2019-05-18T18:42:18.507Z,3.83
2019-05-18T18:44:46.908Z,2.45
2019-05-18T18:47:15.298Z,2.42
2019-05-18T18:49:43.689Z,2.67
2019-05-18T18:52:12.075Z,3.95
2019-05-18T18:54:40.456Z,2.60
2019-05-18T18:57:08.851Z,3.15
2019-05-18T18:59:37.280Z,4.03
2019-05-18T19:02:05.942Z,2.40
2019-05-18T19:04:34.332Z,6.37
2019-05-18T19:07:02.727Z,2.70
2019-05-18T19:09:33.293Z,3.75
2019-05-18T19:14:29.596Z,4.28
2019-05-18T19:16:58.260Z,2.62
2019-05-18T19:19:26.627Z,2.60
2019-05-18T19:21:55.297Z,3.10
2019-05-18T19:24:23.679Z,4.67
2019-05-18T19:26:52.120Z,3.17
2019-05-18T19:29:20.561Z,3.20
2019-05-18T19:31:48.965Z,5.33
2019-05-18T19:34:17.417Z,4.37
2019-05-18T19:36:45.831Z,6.37
2019-05-18T19:39:14.214Z,5.75
2019-05-18T19:41:42.615Z,4.83
2019-05-18T19:44:11.003Z,7.28
2019-05-18T19:46:39.393Z,4.35
2019-05-18T19:49:07.777Z,2.75
2019-05-18T19:51:36.183Z,3.27
2019-05-18T19:54:04.602Z,3.00
2019-05-18T19:56:39.065Z,2.92
2019-05-18T19:59:03.373Z,3.87
2019-05-18T20:01:32.085Z,2.40
2019-05-18T20:04:00.475Z,3.92
2019-05-18T20:06:29.178Z,5.20
2019-05-18T20:08:57.620Z,3.58
2019-05-18T20:11:26.013Z,2.90
2019-05-18T20:13:54.428Z,2.77
2019-05-18T20:16:22.861Z,3.05
2019-05-18T20:18:51.255Z,2.67
2019-05-18T20:21:19.633Z,2.50
2019-05-18T20:23:48.020Z,3.00
2019-05-18T20:26:16.416Z,3.62
2019-05-18T20:28:47.455Z,4.08
2019-05-18T20:31:15.902Z,4.20
2019-05-18T20:33:44.290Z,4.12
2019-05-18T20:36:12.685Z,4.20
2019-05-18T20:38:41.072Z,3.50
2019-05-18T20:41:10.795Z,4.22
2019-05-18T20:43:39.183Z,5.65
2019-05-18T20:46:10.323Z,4.65
2019-05-18T20:48:38.731Z,6.33
2019-05-18T20:51:07.116Z,5.95
2019-05-18T20:53:36.885Z,6.67
2019-05-18T20:56:05.283Z,5.67
2019-05-18T20:58:40.221Z,5.90
2019-05-18T21:01:03.825Z,4.20
2019-05-18T21:03:32.212Z,5.42
2019-05-18T21:06:00.598Z,6.25
2019-05-18T21:08:29.006Z,4.30
2019-05-18T21:10:57.384Z,7.55
2019-05-18T21:13:25.784Z,4.53
2019-05-18T21:15:54.249Z,8.13
2019-05-18T21:18:22.632Z,5.08
2019-05-18T21:20:51.013Z,6.20
2019-05-18T21:23:19.448Z,7.17
2019-05-18T21:25:47.852Z,5.75
2019-05-18T21:28:16.240Z,7.05
2019-05-18T21:30:44.616Z,7.20
2019-05-18T21:33:13.005Z,7.22
2019-05-18T21:35:41.396Z,7.45
2019-05-18T21:38:09.788Z,7.42
2019-05-18T21:40:38.172Z,8.23
2019-05-18T21:43:06.563Z,7.12
2019-05-18T21:45:34.948Z,7.35
2019-05-18T21:48:03.337Z,8.85
2019-05-18T21:50:31.742Z,7.67
2019-05-18T21:53:00.128Z,7.97
2019-05-18T21:55:28.516Z,8.28
2019-05-18T21:57:56.906Z,10.72
2019-05-18T22:00:25.776Z,9.40
2019-05-18T22:02:54.160Z,8.75
2019-05-18T22:05:22.555Z,9.95
2019-05-18T22:07:50.942Z,9.13
2019-05-18T22:10:25.705Z,8.65
2019-05-18T22:12:49.508Z,8.75
2019-05-18T22:15:18.035Z,8.40
2019-05-18T22:18:04.325Z,8.05
2019-05-18T22:20:34.266Z,9.35
2019-05-18T22:23:03.014Z,7.03
2019-05-18T22:25:31.855Z,8.53
2019-05-18T22:28:00.251Z,8.18
2019-05-18T22:30:29.707Z,9.03
2019-05-18T22:32:58.500Z,8.45
2019-05-18T22:35:26.894Z,8.95
2019-05-18T22:37:55.374Z,8.55
2019-05-18T22:40:23.818Z,8.25
2019-05-18T22:42:52.207Z,8.33
2019-05-18T22:45:20.599Z,9.13
2019-05-18T22:47:48.982Z,11.75
2019-05-18T22:50:17.454Z,10.32
2019-05-18T22:52:45.840Z,14.33
2019-05-18T22:55:14.376Z,15.10
2019-05-18T22:57:42.771Z,16.55
2019-05-18T23:00:11.792Z,15.35
2019-05-18T23:02:40.180Z,21.00
2019-05-18T23:05:08.651Z,19.55
2019-05-18T23:07:37.040Z,24.47
2019-05-18T23:10:06.500Z,20.90
2019-05-18T23:12:34.900Z,26.30
2019-05-18T23:15:03.968Z,26.10
2019-05-18T23:17:32.374Z,25.17
2019-05-18T23:20:00.840Z,26.40
2019-05-18T23:22:29.243Z,23.27
2019-05-18T23:24:57.636Z,19.92
2019-05-18T23:27:26.103Z,26.17
2019-05-18T23:29:54.560Z,25.88
2019-05-18T23:32:22.960Z,26.42
2019-05-18T23:34:51.340Z,29.65
2019-05-18T23:37:20.075Z,30.60
2019-05-18T23:39:48.496Z,31.85
2019-05-18T23:42:16.894Z,30.57
2019-05-18T23:44:45.292Z,32.67
2019-05-18T23:47:13.708Z,29.15
2019-05-18T23:49:42.120Z,26.73
2019-05-18T23:52:10.584Z,23.05
2019-05-18T23:54:38.981Z,24.60
2019-05-18T23:57:07.375Z,24.18
2019-05-18T23:59:35.767Z,18.70
